NID weather

China Lake Naws (Armitage Field) Airport
China Lake, California, United States

Public forecast

Using degrees Fahrenheit for public forecast. Weather courtesy of forecast.io.

METAR (pilot weather report)

Retrieved 2019/06/25 10:56 UTC (18 minutes ago):

KNID 251056Z AUTO 36005KT 10SM CLR 22/04 A2976 RMK AO2 SLP051 T02170044

TAF (pilot weather forecast)

Forecast is more than 12 hours old.

Retrieved 2016/02/03 15:51 UTC (3 years ago):

TAF KNID 031500Z 0315/0415 VRB05KT 9999 SKC QNH3032INS BECMG 0323/0401 VRB06KT 9999 SCT150 BKN250 QNH3033INS BECMG 0411/0413 VRB05KT 9999 FEW250 QNH3036INS TX12/0323Z TNM04/0414Z